createdAt,value
2018-12-12T00:01:16.523Z,35.70
2018-12-12T00:03:47.847Z,35.60
2018-12-12T00:06:19.219Z,35.50
2018-12-12T00:08:48.609Z,35.60
2018-12-12T00:11:18.008Z,35.60
2018-12-12T00:13:47.311Z,35.40
2018-12-12T00:16:16.646Z,35.40
2018-12-12T00:18:45.975Z,35.30
2018-12-12T00:21:15.315Z,35.30
2018-12-12T00:23:44.931Z,35.40
2018-12-12T00:26:14.530Z,35.20
2018-12-12T00:28:43.929Z,35.20
2018-12-12T00:31:13.296Z,35.30
2018-12-12T00:33:42.651Z,35.30
2018-12-12T00:36:12.085Z,35.20
2018-12-12T00:38:41.564Z,35.20
2018-12-12T00:41:10.907Z,35.10
2018-12-12T00:43:40.249Z,35.10
2018-12-12T00:46:09.638Z,35.10
2018-12-12T00:48:39.036Z,35.00
2018-12-12T00:51:08.501Z,35.00
2018-12-12T00:53:37.962Z,35.00
2018-12-12T00:56:07.303Z,35.00
2018-12-12T00:58:36.667Z,35.00
2018-12-12T01:01:06.018Z,35.00
2018-12-12T01:03:35.356Z,34.90
2018-12-12T01:06:04.684Z,35.20
2018-12-12T01:08:33.980Z,34.90
2018-12-12T01:11:08.495Z,34.80
2018-12-12T01:13:37.817Z,34.90
2018-12-12T01:16:07.235Z,34.80
2018-12-12T01:18:36.601Z,34.80
2018-12-12T01:21:06.016Z,34.80
2018-12-12T01:23:35.609Z,34.80
2018-12-12T01:26:05.010Z,34.80
2018-12-12T01:28:34.285Z,34.80
2018-12-12T01:31:04.728Z,34.70
2018-12-12T01:33:34.072Z,34.70
2018-12-12T01:36:03.521Z,34.60
2018-12-12T01:38:32.861Z,34.60
2018-12-12T01:41:02.186Z,34.70
2018-12-12T01:43:31.760Z,34.60
2018-12-12T01:46:01.059Z,34.60
2018-12-12T01:48:30.463Z,34.60
2018-12-12T01:50:59.840Z,34.40
2018-12-12T01:53:29.175Z,34.50
2018-12-12T01:55:58.598Z,34.50
2018-12-12T01:58:27.917Z,34.40
2018-12-12T02:00:57.246Z,34.40
2018-12-12T02:03:26.638Z,34.20
2018-12-12T02:05:56.132Z,34.30
2018-12-12T02:08:25.697Z,34.20
2018-12-12T02:10:55.285Z,34.20
2018-12-12T02:13:42.202Z,34.20
2018-12-12T02:16:11.438Z,34.10
2018-12-12T02:18:43.439Z,34.10
2018-12-12T02:21:12.775Z,34.10
2018-12-12T02:23:42.275Z,34.20
2018-12-12T02:26:37.139Z,34.10
2018-12-12T02:29:06.504Z,34.10
2018-12-12T02:31:35.887Z,34.10
2018-12-12T02:34:05.257Z,34.10
2018-12-12T02:36:34.710Z,34.10
2018-12-12T02:39:04.885Z,34.10
2018-12-12T02:41:44.144Z,34.10
2018-12-12T02:44:13.488Z,34.10
2018-12-12T02:46:42.804Z,34.10
2018-12-12T02:49:12.197Z,34.10
2018-12-12T02:51:41.477Z,34.10
2018-12-12T02:54:10.828Z,34.10
2018-12-12T02:56:40.195Z,34.10
2018-12-12T02:59:09.575Z,34.10
2018-12-12T03:01:38.854Z,34.10
2018-12-12T03:04:08.410Z,34.10
2018-12-12T03:06:37.837Z,34.00
2018-12-12T03:09:07.529Z,34.10
2018-12-12T03:11:38.928Z,33.40
2018-12-12T03:14:08.613Z,34.10
2018-12-12T03:16:37.983Z,34.10
2018-12-12T03:19:07.479Z,34.00
2018-12-12T03:21:36.853Z,34.00
2018-12-12T03:24:06.193Z,34.10
2018-12-12T03:26:35.563Z,34.00
2018-12-12T03:31:41.768Z,34.00
2018-12-12T03:34:11.083Z,34.00
2018-12-12T03:36:40.610Z,34.00
2018-12-12T03:39:10.219Z,34.00
2018-12-12T03:41:39.856Z,34.00
2018-12-12T03:44:09.267Z,34.00
2018-12-12T03:46:38.664Z,34.10
2018-12-12T03:49:14.598Z,34.80
2018-12-12T03:51:43.902Z,34.00
2018-12-12T03:54:15.338Z,34.00
2018-12-12T03:56:44.920Z,34.00
2018-12-12T03:59:17.655Z,34.00
2018-12-12T04:01:46.998Z,34.00
2018-12-12T04:04:16.326Z,34.00
2018-12-12T04:06:45.683Z,34.00
2018-12-12T04:09:15.117Z,34.00
2018-12-12T04:11:44.464Z,34.00
2018-12-12T04:14:13.939Z,34.00
2018-12-12T04:16:43.593Z,34.00
2018-12-12T04:19:13.208Z,34.00
2018-12-12T04:21:44.660Z,34.00
2018-12-12T04:24:13.980Z,34.00
2018-12-12T04:26:43.244Z,34.00
2018-12-12T04:29:12.623Z,34.00
2018-12-12T04:31:42.087Z,33.90
2018-12-12T04:34:11.480Z,33.90
2018-12-12T04:36:40.865Z,33.90
2018-12-12T04:39:10.164Z,33.90
2018-12-12T04:41:39.665Z,33.90
2018-12-12T04:44:09.071Z,33.90
2018-12-12T04:46:38.461Z,33.90
2018-12-12T04:49:07.844Z,33.90
2018-12-12T04:51:37.204Z,33.90
2018-12-12T04:54:06.544Z,33.90
2018-12-12T04:56:35.924Z,33.90
2018-12-12T04:59:05.549Z,33.90
2018-12-12T05:01:35.155Z,33.90
2018-12-12T05:04:04.611Z,33.90
2018-12-12T05:06:44.364Z,33.90
2018-12-12T05:09:13.763Z,32.80
2018-12-12T05:17:21.827Z,32.80
2018-12-12T05:19:51.502Z,33.80
2018-12-12T05:22:20.797Z,34.60
2018-12-12T05:24:50.063Z,35.90
2018-12-12T05:27:19.665Z,35.80
2018-12-12T05:29:49.342Z,36.20
2018-12-12T05:32:18.722Z,36.40
2018-12-12T05:34:48.058Z,36.70
2018-12-12T05:37:17.849Z,36.30
2018-12-12T05:39:47.338Z,36.10
2018-12-12T05:42:24.209Z,36.20
2018-12-12T05:44:53.549Z,36.70
2018-12-12T05:47:22.864Z,37.00
2018-12-12T05:52:51.868Z,38.00
2018-12-12T05:55:21.523Z,38.30
2018-12-12T05:57:50.840Z,38.40
2018-12-12T06:00:20.456Z,38.60
2018-12-12T06:02:49.774Z,38.60
2018-12-12T06:05:19.224Z,38.60
2018-12-12T06:07:48.618Z,38.90
2018-12-12T06:10:17.928Z,39.30
2018-12-12T06:12:47.403Z,38.00
2018-12-12T06:15:16.672Z,38.20
2018-12-12T06:17:46.331Z,38.20
2018-12-12T06:20:15.970Z,38.00
2018-12-12T06:22:45.712Z,38.50
2018-12-12T06:25:15.164Z,38.90
2018-12-12T06:27:44.533Z,37.90
2018-12-12T06:30:13.770Z,37.60
2018-12-12T06:32:43.426Z,37.50
2018-12-12T06:35:12.821Z,37.80
2018-12-12T06:37:52.434Z,38.20
2018-12-12T06:43:14.920Z,38.40
2018-12-12T06:48:24.303Z,38.60
2018-12-12T06:51:05.922Z,38.50
2018-12-12T06:53:35.614Z,39.40
2018-12-12T06:56:04.887Z,40.20
2018-12-12T06:58:34.400Z,40.10
2018-12-12T07:01:03.943Z,39.50
2018-12-12T07:03:33.324Z,38.80
2018-12-12T07:11:28.820Z,37.50
2018-12-12T07:13:58.157Z,37.00
2018-12-12T07:16:39.026Z,36.60
2018-12-12T07:21:52.999Z,36.80
2018-12-12T07:24:22.612Z,37.50
2018-12-12T07:26:53.293Z,37.70
2018-12-12T07:32:01.883Z,37.50
2018-12-12T07:34:32.003Z,38.20
2018-12-12T07:40:04.741Z,39.10
2018-12-12T07:42:34.284Z,40.20
2018-12-12T07:45:20.547Z,41.20
2018-12-12T07:47:52.036Z,41.40
2018-12-12T07:50:27.230Z,41.60
2018-12-12T07:52:56.407Z,41.90
2018-12-12T07:55:38.798Z,42.20
2018-12-12T07:58:09.304Z,42.50
2018-12-12T08:00:38.714Z,42.70
2018-12-12T08:03:08.241Z,43.00
2018-12-12T08:08:43.718Z,42.60
2018-12-12T08:11:13.140Z,42.90
2018-12-12T08:13:43.586Z,43.50
2018-12-12T08:16:20.808Z,44.00
2018-12-12T08:18:50.631Z,44.10
2018-12-12T08:21:27.922Z,40.60
2018-12-12T08:23:57.267Z,36.80
2018-12-12T08:29:12.487Z,36.90
2018-12-12T08:31:42.206Z,39.80
2018-12-12T08:34:12.787Z,41.00
2018-12-12T08:36:42.226Z,41.40
2018-12-12T08:39:11.594Z,40.80
2018-12-12T08:41:54.670Z,40.90
2018-12-12T08:44:24.039Z,40.80
2018-12-12T08:46:53.481Z,40.30
2018-12-12T08:49:23.317Z,39.20
2018-12-12T08:51:54.643Z,39.00
2018-12-12T08:54:24.402Z,39.40
2018-12-12T08:56:54.483Z,39.30
2018-12-12T08:59:24.242Z,39.90
2018-12-12T09:01:53.880Z,40.00
2018-12-12T09:04:23.291Z,40.10
2018-12-12T09:06:52.859Z,40.10
2018-12-12T09:09:23.202Z,40.20
2018-12-12T09:11:52.671Z,40.50
2018-12-12T09:14:22.352Z,40.50
2018-12-12T09:16:56.941Z,40.60
2018-12-12T09:19:30.208Z,40.00
2018-12-12T09:27:58.404Z,41.50
2018-12-12T09:30:29.917Z,42.20
2018-12-12T09:36:32.084Z,42.80
2018-12-12T09:39:07.545Z,43.30
2018-12-12T09:44:19.482Z,44.00
2018-12-12T09:46:57.118Z,44.60
2018-12-12T09:49:34.548Z,44.80
2018-12-12T09:52:05.705Z,45.20
2018-12-12T09:57:26.116Z,45.10
2018-12-12T10:00:05.713Z,45.50
2018-12-12T10:02:35.522Z,45.50
2018-12-12T10:07:43.579Z,46.00
2018-12-12T10:10:13.536Z,46.40
2018-12-12T10:12:42.862Z,46.60
2018-12-12T10:15:13.429Z,45.80
2018-12-12T10:17:43.278Z,38.50
2018-12-12T10:20:19.536Z,38.20
2018-12-12T10:25:35.415Z,41.60
2018-12-12T10:28:06.489Z,45.30
2018-12-12T10:30:47.125Z,40.80
2018-12-12T10:33:18.419Z,43.10
2018-12-12T10:35:48.002Z,41.90
2018-12-12T10:38:17.384Z,44.10
2018-12-12T10:40:46.660Z,45.40
2018-12-12T10:43:16.397Z,44.40
2018-12-12T10:48:43.379Z,45.60
2018-12-12T10:51:13.072Z,49.10
2018-12-12T10:53:42.635Z,49.10
2018-12-12T10:58:53.480Z,49.40
2018-12-12T11:01:30.207Z,43.40
2018-12-12T11:04:00.905Z,44.50
2018-12-12T11:06:30.981Z,41.70
2018-12-12T11:09:04.615Z,42.60
2018-12-12T11:11:36.557Z,42.50
2018-12-12T11:14:06.976Z,41.70
2018-12-12T11:16:39.737Z,43.40
2018-12-12T11:19:09.604Z,50.10
2018-12-12T11:21:39.271Z,48.80
2018-12-12T11:27:00.602Z,42.70
2018-12-12T11:29:48.594Z,43.40
2018-12-12T11:32:26.189Z,43.30
2018-12-12T11:34:55.710Z,43.00
2018-12-12T11:37:26.267Z,50.40
2018-12-12T11:39:55.719Z,47.10
2018-12-12T11:42:26.811Z,44.00
2018-12-12T11:44:58.023Z,46.90
2018-12-12T11:47:28.370Z,42.20
2018-12-12T11:49:58.358Z,44.40
2018-12-12T11:53:15.448Z,46.30
2018-12-12T11:55:45.116Z,44.90
2018-12-12T11:58:22.174Z,46.10
2018-12-12T12:00:51.810Z,49.60
2018-12-12T12:03:23.651Z,47.80
2018-12-12T12:05:54.170Z,45.20
2018-12-12T12:08:24.114Z,51.30
2018-12-12T12:10:54.661Z,52.00
2018-12-12T12:13:29.749Z,53.60
2018-12-12T12:16:00.531Z,53.30
2018-12-12T12:18:31.063Z,51.70
2018-12-12T12:21:01.309Z,51.30
2018-12-12T12:23:41.330Z,48.90
2018-12-12T12:26:12.298Z,47.10
2018-12-12T12:28:42.400Z,43.70
2018-12-12T12:31:30.728Z,42.10
2018-12-12T12:34:13.756Z,39.10
2018-12-12T12:36:44.112Z,37.00
2018-12-12T12:39:13.697Z,35.70
2018-12-12T12:41:43.224Z,35.70
2018-12-12T12:44:12.711Z,35.30
2018-12-12T12:46:43.533Z,35.70
2018-12-12T12:49:13.680Z,36.20
2018-12-12T12:51:43.570Z,36.40
2018-12-12T12:54:13.008Z,37.50
2018-12-12T12:56:42.590Z,37.70
2018-12-12T13:07:41.791Z,43.20
2018-12-12T13:10:13.659Z,45.40
2018-12-12T13:12:48.974Z,46.50
2018-12-12T13:15:18.591Z,46.70
2018-12-12T13:17:48.022Z,47.80
2018-12-12T13:20:17.835Z,48.20
2018-12-12T13:22:48.313Z,48.40
2018-12-12T13:25:21.001Z,48.40
2018-12-12T13:28:00.445Z,49.00
2018-12-12T13:30:30.776Z,48.80
2018-12-12T13:33:00.073Z,49.50
2018-12-12T13:35:30.640Z,49.50
2018-12-12T13:38:00.732Z,49.30
2018-12-12T13:40:35.544Z,49.40
2018-12-12T13:43:06.487Z,49.50
2018-12-12T13:45:36.813Z,49.70
2018-12-12T13:48:06.948Z,49.40
2018-12-12T13:50:37.653Z,49.40
2018-12-12T13:53:31.351Z,49.40
2018-12-12T13:56:01.965Z,49.40
2018-12-12T13:58:32.035Z,49.40
2018-12-12T14:01:02.915Z,49.30
2018-12-12T14:03:34.163Z,49.30
2018-12-12T14:06:04.796Z,49.70
2018-12-12T14:08:34.441Z,49.70
2018-12-12T14:11:04.540Z,49.70
2018-12-12T14:13:34.144Z,49.10
2018-12-12T14:16:03.575Z,48.80
2018-12-12T14:18:32.998Z,48.00
2018-12-12T14:21:02.340Z,47.30
2018-12-12T14:23:31.790Z,47.20
2018-12-12T14:26:02.060Z,47.10
2018-12-12T14:28:31.445Z,47.00
2018-12-12T14:31:00.890Z,47.00
2018-12-12T14:33:30.181Z,46.90
2018-12-12T14:36:01.147Z,47.00
2018-12-12T14:38:30.769Z,46.80
2018-12-12T14:41:00.921Z,46.70
2018-12-12T14:43:30.273Z,47.20
2018-12-12T14:46:01.578Z,46.50
2018-12-12T14:48:30.994Z,46.20
2018-12-12T14:51:00.448Z,46.10
2018-12-12T14:53:31.419Z,45.80
2018-12-12T14:56:00.845Z,45.60
2018-12-12T14:58:31.025Z,45.60
2018-12-12T15:01:00.928Z,45.40
2018-12-12T15:03:34.376Z,45.40
2018-12-12T15:06:03.877Z,45.30
2018-12-12T15:08:33.749Z,45.30
2018-12-12T15:11:03.480Z,45.30
2018-12-12T15:13:33.509Z,45.30
2018-12-12T15:16:04.176Z,45.20
2018-12-12T15:18:33.593Z,44.90
2018-12-12T15:21:03.008Z,45.00
2018-12-12T15:23:32.532Z,44.90
2018-12-12T15:26:01.847Z,44.60
2018-12-12T15:28:31.486Z,44.50
2018-12-12T15:31:01.307Z,44.40
2018-12-12T15:33:30.773Z,44.10
2018-12-12T15:36:06.732Z,44.00
2018-12-12T15:38:36.153Z,43.80
2018-12-12T15:41:05.537Z,43.60
2018-12-12T15:43:36.660Z,43.40
2018-12-12T15:46:06.796Z,43.30
2018-12-12T15:48:36.802Z,43.30
2018-12-12T15:51:06.321Z,43.20
2018-12-12T15:53:35.828Z,42.70
2018-12-12T15:56:05.367Z,42.70
2018-12-12T15:58:35.152Z,42.70
2018-12-12T16:01:04.552Z,42.30
2018-12-12T16:03:34.156Z,42.20
2018-12-12T16:06:03.559Z,42.00
2018-12-12T16:08:32.886Z,42.00
2018-12-12T16:11:08.061Z,41.80
2018-12-12T16:13:33.928Z,41.50
2018-12-12T16:16:03.296Z,41.40
2018-12-12T16:18:32.726Z,41.30
2018-12-12T16:21:02.107Z,41.20
2018-12-12T16:23:31.557Z,41.10
2018-12-12T16:26:00.913Z,41.00
2018-12-12T16:28:31.235Z,40.90
2018-12-12T16:31:00.438Z,40.80
2018-12-12T16:33:29.837Z,40.70
2018-12-12T16:35:59.112Z,40.50
2018-12-12T16:38:28.343Z,40.40
2018-12-12T16:40:57.640Z,40.20
2018-12-12T16:43:26.839Z,40.10
2018-12-12T16:45:58.112Z,40.10
2018-12-12T16:48:27.415Z,40.00
2018-12-12T16:50:56.716Z,39.90
2018-12-12T16:53:26.048Z,39.80
2018-12-12T16:55:55.295Z,39.70
2018-12-12T16:58:25.326Z,39.80
2018-12-12T17:00:54.613Z,39.70
2018-12-12T17:03:23.932Z,39.60
2018-12-12T17:05:53.444Z,39.40
2018-12-12T17:08:22.687Z,39.30
2018-12-12T17:10:51.988Z,39.20
2018-12-12T17:13:21.268Z,39.10
2018-12-12T17:15:50.531Z,39.10
2018-12-12T17:18:19.731Z,39.00
2018-12-12T17:20:49.142Z,39.00
2018-12-12T17:23:19.478Z,38.90
2018-12-12T17:25:48.883Z,38.80
2018-12-12T17:28:18.156Z,38.70
2018-12-12T17:30:47.497Z,38.50
2018-12-12T17:33:16.766Z,38.40
2018-12-12T17:35:46.080Z,38.40
2018-12-12T17:38:15.349Z,38.30
2018-12-12T17:40:44.642Z,38.30
2018-12-12T17:43:13.887Z,38.30
2018-12-12T17:45:43.148Z,38.30
2018-12-12T17:48:12.531Z,38.20
2018-12-12T17:50:41.874Z,38.00
2018-12-12T17:53:11.220Z,37.90
2018-12-12T17:55:40.443Z,37.80
2018-12-12T17:58:09.915Z,37.80
2018-12-12T18:00:39.292Z,37.70
2018-12-12T18:03:10.532Z,37.70
2018-12-12T18:05:51.860Z,37.50
2018-12-12T18:08:22.185Z,37.50
2018-12-12T18:10:51.589Z,37.30
2018-12-12T18:13:21.767Z,37.40
2018-12-12T18:15:53.042Z,37.30
2018-12-12T18:18:24.370Z,37.40
2018-12-12T18:20:53.649Z,37.40
2018-12-12T18:23:25.068Z,37.20
2018-12-12T18:25:56.426Z,37.30
2018-12-12T18:28:25.816Z,37.20
2018-12-12T18:30:55.056Z,37.10
2018-12-12T18:33:26.277Z,37.00
2018-12-12T18:36:01.188Z,37.00
2018-12-12T18:38:30.483Z,36.80
2018-12-12T18:40:59.856Z,36.80
2018-12-12T18:43:31.150Z,36.80
2018-12-12T18:46:00.506Z,36.60
2018-12-12T18:48:29.836Z,36.60
2018-12-12T18:51:01.132Z,36.60
2018-12-12T18:53:32.444Z,36.50
2018-12-12T18:56:03.815Z,36.40
2018-12-12T18:58:33.242Z,36.40
2018-12-12T19:01:02.545Z,36.40
2018-12-12T19:03:31.982Z,36.20
2018-12-12T19:06:01.299Z,36.20
2018-12-12T19:08:30.786Z,36.20
2018-12-12T19:11:00.292Z,36.70
2018-12-12T19:13:29.567Z,36.20
2018-12-12T19:15:58.878Z,36.20
2018-12-12T19:18:28.336Z,35.70
2018-12-12T19:21:00.251Z,35.60
2018-12-12T19:23:29.278Z,35.30
2018-12-12T19:25:58.591Z,35.50
2018-12-12T19:28:27.835Z,35.60
2018-12-12T19:30:57.116Z,35.70
2018-12-12T19:33:26.404Z,35.70
2018-12-12T19:35:55.757Z,35.60
2018-12-12T19:38:26.085Z,35.60
2018-12-12T19:40:55.379Z,35.60
2018-12-12T19:43:24.867Z,35.50
2018-12-12T19:45:54.203Z,35.50
2018-12-12T19:48:23.798Z,35.40
2018-12-12T19:50:53.124Z,35.40
2018-12-12T19:53:22.511Z,35.30
2018-12-12T19:55:51.864Z,35.30
2018-12-12T19:58:22.304Z,35.30
2018-12-12T20:00:51.586Z,35.30
2018-12-12T20:03:20.912Z,35.40
2018-12-12T20:05:50.322Z,35.50
2018-12-12T20:08:19.662Z,35.70
2018-12-12T20:10:48.921Z,35.80
2018-12-12T20:13:18.401Z,35.90
2018-12-12T20:15:47.931Z,36.00
2018-12-12T20:18:17.307Z,35.90
2018-12-12T20:20:46.592Z,36.00
2018-12-12T20:23:15.966Z,36.00
2018-12-12T20:25:45.248Z,36.00
2018-12-12T20:28:15.312Z,35.90
2018-12-12T20:30:44.637Z,35.90
2018-12-12T20:33:14.065Z,35.90
2018-12-12T20:35:47.934Z,35.80
2018-12-12T20:38:15.053Z,35.80
2018-12-12T20:40:45.095Z,35.80
2018-12-12T20:43:14.394Z,35.80
2018-12-12T20:45:43.696Z,35.70
2018-12-12T20:48:12.957Z,35.70
2018-12-12T20:50:42.330Z,35.60
2018-12-12T20:53:11.653Z,35.50
2018-12-12T20:55:40.854Z,35.50
2018-12-12T20:58:10.330Z,35.50
2018-12-12T21:00:40.786Z,35.50
2018-12-12T21:03:10.948Z,35.40
2018-12-12T21:05:40.237Z,35.40
2018-12-12T21:08:09.775Z,35.40
2018-12-12T21:10:40.102Z,35.40
2018-12-12T21:13:11.427Z,35.40
2018-12-12T21:15:44.930Z,35.30
2018-12-12T21:18:14.265Z,35.30
2018-12-12T21:20:43.852Z,35.30
2018-12-12T21:23:13.178Z,35.30
2018-12-12T21:25:42.881Z,35.40
2018-12-12T21:28:12.267Z,35.40
2018-12-12T21:30:41.668Z,35.40
2018-12-12T21:33:10.984Z,35.40
2018-12-12T21:35:40.404Z,35.40
2018-12-12T21:38:09.970Z,35.40
2018-12-12T21:40:40.303Z,35.40
2018-12-12T21:43:09.674Z,35.40
2018-12-12T21:45:38.974Z,35.40
2018-12-12T21:48:08.261Z,35.40
2018-12-12T21:50:37.683Z,35.40
2018-12-12T21:53:06.983Z,35.40
2018-12-12T21:55:36.338Z,35.40
2018-12-12T21:58:05.662Z,35.40
2018-12-12T22:00:35.039Z,35.50
2018-12-12T22:03:04.327Z,35.50
2018-12-12T22:05:33.619Z,35.50
2018-12-12T22:08:02.940Z,35.50
2018-12-12T22:10:32.221Z,35.50
2018-12-12T22:13:01.683Z,35.50
2018-12-12T22:15:31.025Z,35.50
2018-12-12T22:18:00.331Z,35.60
2018-12-12T22:20:29.714Z,35.50
2018-12-12T22:22:59.107Z,35.50
2018-12-12T22:25:28.332Z,35.60
2018-12-12T22:27:57.540Z,35.40
2018-12-12T22:30:26.863Z,35.50
2018-12-12T22:32:56.171Z,35.50
2018-12-12T22:35:25.716Z,35.50
2018-12-12T22:37:55.047Z,35.50
2018-12-12T22:40:24.519Z,35.60
2018-12-12T22:42:54.059Z,35.60
2018-12-12T22:45:23.390Z,35.60
2018-12-12T22:47:53.278Z,35.70
2018-12-12T22:50:22.570Z,35.70
2018-12-12T22:52:51.876Z,35.70
2018-12-12T22:55:21.192Z,35.70
2018-12-12T22:57:50.535Z,35.70
2018-12-12T23:00:25.197Z,35.70
2018-12-12T23:02:56.465Z,35.70
2018-12-12T23:05:25.825Z,35.60
2018-12-12T23:07:55.303Z,36.40
2018-12-12T23:10:24.624Z,35.60
2018-12-12T23:12:53.956Z,35.70
2018-12-12T23:15:24.891Z,35.60
2018-12-12T23:17:55.217Z,35.60
2018-12-12T23:20:24.539Z,35.60
2018-12-12T23:22:53.823Z,35.70
2018-12-12T23:25:23.264Z,35.60
2018-12-12T23:27:52.659Z,35.50
2018-12-12T23:30:21.966Z,35.50
2018-12-12T23:32:51.232Z,35.60
2018-12-12T23:35:20.499Z,35.50
2018-12-12T23:37:49.898Z,35.60
2018-12-12T23:40:19.102Z,35.60
2018-12-12T23:42:48.468Z,35.60
2018-12-12T23:45:17.860Z,35.60
2018-12-12T23:47:47.343Z,35.60
2018-12-12T23:50:16.641Z,35.60
2018-12-12T23:52:45.973Z,35.50
2018-12-12T23:55:15.137Z,35.50
2018-12-12T23:57:44.472Z,35.60
